sensor_id;sensor_type;location;lat;lon;timestamp;P1;durP1;ratioP1;P2;durP2;ratioP2
74808;SDS011;63338;39.544;2.596;2023-02-28T00:01:08;9.07;;;3.05;;
74808;SDS011;63338;39.544;2.596;2023-02-28T00:03:35;9.68;;;3.47;;
74808;SDS011;63338;39.544;2.596;2023-02-28T00:06:02;8.57;;;3.08;;
74808;SDS011;63338;39.544;2.596;2023-02-28T00:08:29;6.13;;;3.10;;
74808;SDS011;63338;39.544;2.596;2023-02-28T00:10:55;7.18;;;3.88;;
74808;SDS011;63338;39.544;2.596;2023-02-28T00:13:25;5.38;;;3.22;;
74808;SDS011;63338;39.544;2.596;2023-02-28T00:15:58;8.93;;;4.22;;
74808;SDS011;63338;39.544;2.596;2023-02-28T00:18:28;7.68;;;2.70;;
74808;SDS011;63338;39.544;2.596;2023-02-28T00:20:54;6.85;;;3.30;;
74808;SDS011;63338;39.544;2.596;2023-02-28T00:23:20;9.18;;;4.07;;
74808;SDS011;63338;39.544;2.596;2023-02-28T00:25:49;8.32;;;4.30;;
74808;SDS011;63338;39.544;2.596;2023-02-28T00:28:18;11.23;;;3.70;;
74808;SDS011;63338;39.544;2.596;2023-02-28T00:30:45;8.27;;;3.97;;
74808;SDS011;63338;39.544;2.596;2023-02-28T00:33:12;8.02;;;3.47;;
74808;SDS011;63338;39.544;2.596;2023-02-28T00:35:38;10.75;;;3.78;;
74808;SDS011;63338;39.544;2.596;2023-02-28T00:38:05;9.90;;;3.45;;
74808;SDS011;63338;39.544;2.596;2023-02-28T00:40:31;5.63;;;3.33;;
74808;SDS011;63338;39.544;2.596;2023-02-28T00:42:57;6.63;;;2.95;;
74808;SDS011;63338;39.544;2.596;2023-02-28T00:45:23;12.32;;;2.95;;
74808;SDS011;63338;39.544;2.596;2023-02-28T00:47:49;6.22;;;2.72;;
74808;SDS011;63338;39.544;2.596;2023-02-28T00:50:18;8.32;;;3.10;;
74808;SDS011;63338;39.544;2.596;2023-02-28T00:52:45;12.70;;;3.05;;
74808;SDS011;63338;39.544;2.596;2023-02-28T00:55:12;10.00;;;3.22;;
74808;SDS011;63338;39.544;2.596;2023-02-28T00:57:38;10.10;;;2.22;;
74808;SDS011;63338;39.544;2.596;2023-02-28T01:00:06;10.57;;;2.70;;
74808;SDS011;63338;39.544;2.596;2023-02-28T01:02:33;6.78;;;2.38;;
74808;SDS011;63338;39.544;2.596;2023-02-28T01:04:59;7.78;;;3.03;;
74808;SDS011;63338;39.544;2.596;2023-02-28T01:07:25;6.63;;;2.45;;
74808;SDS011;63338;39.544;2.596;2023-02-28T01:09:51;12.68;;;2.83;;
74808;SDS011;63338;39.544;2.596;2023-02-28T01:12:18;9.93;;;2.30;;
74808;SDS011;63338;39.544;2.596;2023-02-28T01:14:44;13.05;;;2.65;;
74808;SDS011;63338;39.544;2.596;2023-02-28T01:17:10;10.02;;;2.40;;
74808;SDS011;63338;39.544;2.596;2023-02-28T01:19:37;6.40;;;2.35;;
74808;SDS011;63338;39.544;2.596;2023-02-28T01:22:04;9.43;;;2.58;;
74808;SDS011;63338;39.544;2.596;2023-02-28T01:24:30;12.40;;;2.72;;
74808;SDS011;63338;39.544;2.596;2023-02-28T01:26:57;8.90;;;2.35;;
74808;SDS011;63338;39.544;2.596;2023-02-28T01:29:23;10.38;;;2.17;;
74808;SDS011;63338;39.544;2.596;2023-02-28T01:31:49;11.20;;;2.88;;
74808;SDS011;63338;39.544;2.596;2023-02-28T01:34:17;10.38;;;2.92;;
74808;SDS011;63338;39.544;2.596;2023-02-28T01:36:44;9.93;;;2.55;;
74808;SDS011;63338;39.544;2.596;2023-02-28T01:39:11;8.85;;;2.67;;
74808;SDS011;63338;39.544;2.596;2023-02-28T01:41:39;7.20;;;2.35;;
74808;SDS011;63338;39.544;2.596;2023-02-28T01:47:10;9.93;;;2.20;;
74808;SDS011;63338;39.544;2.596;2023-02-28T01:49:36;7.30;;;2.15;;
74808;SDS011;63338;39.544;2.596;2023-02-28T01:52:13;6.95;;;2.22;;
74808;SDS011;63338;39.544;2.596;2023-02-28T01:54:44;9.77;;;2.80;;
74808;SDS011;63338;39.544;2.596;2023-02-28T01:57:15;8.27;;;1.95;;
74808;SDS011;63338;39.544;2.596;2023-02-28T01:59:46;8.52;;;2.80;;
74808;SDS011;63338;39.544;2.596;2023-02-28T02:02:17;9.38;;;2.50;;
74808;SDS011;63338;39.544;2.596;2023-02-28T02:04:56;10.35;;;2.42;;
74808;SDS011;63338;39.544;2.596;2023-02-28T02:07:29;9.45;;;2.72;;
74808;SDS011;63338;39.544;2.596;2023-02-28T02:10:05;8.52;;;2.35;;
74808;SDS011;63338;39.544;2.596;2023-02-28T02:12:54;11.82;;;2.90;;
74808;SDS011;63338;39.544;2.596;2023-02-28T02:26:31;10.60;;;2.90;;
74808;SDS011;63338;39.544;2.596;2023-02-28T02:42:25;7.40;;;2.90;;
74808;SDS011;63338;39.544;2.596;2023-02-28T02:45:08;5.45;;;2.42;;
74808;SDS011;63338;39.544;2.596;2023-02-28T02:47:37;8.10;;;3.25;;
74808;SDS011;63338;39.544;2.596;2023-02-28T02:50:07;6.22;;;3.00;;
74808;SDS011;63338;39.544;2.596;2023-02-28T02:52:38;7.25;;;2.35;;
74808;SDS011;63338;39.544;2.596;2023-02-28T02:55:09;8.27;;;2.78;;
74808;SDS011;63338;39.544;2.596;2023-02-28T02:57:40;4.90;;;1.60;;
74808;SDS011;63338;39.544;2.596;2023-02-28T03:00:26;6.10;;;2.63;;
74808;SDS011;63338;39.544;2.596;2023-02-28T03:02:58;4.63;;;2.95;;
74808;SDS011;63338;39.544;2.596;2023-02-28T03:05:26;10.45;;;3.33;;
74808;SDS011;63338;39.544;2.596;2023-02-28T03:08:02;4.18;;;2.38;;
74808;SDS011;63338;39.544;2.596;2023-02-28T03:10:38;6.70;;;2.47;;
74808;SDS011;63338;39.544;2.596;2023-02-28T03:13:11;5.68;;;2.53;;
74808;SDS011;63338;39.544;2.596;2023-02-28T03:21:34;3.70;;;2.25;;
74808;SDS011;63338;39.544;2.596;2023-02-28T03:24:10;2.42;;;1.67;;
74808;SDS011;63338;39.544;2.596;2023-02-28T03:26:41;6.95;;;2.97;;
74808;SDS011;63338;39.544;2.596;2023-02-28T03:38:13;7.68;;;2.30;;
74808;SDS011;63338;39.544;2.596;2023-02-28T03:40:42;6.95;;;1.50;;
74808;SDS011;63338;39.544;2.596;2023-02-28T03:43:17;4.25;;;1.80;;
74808;SDS011;63338;39.544;2.596;2023-02-28T03:45:47;3.63;;;1.67;;
74808;SDS011;63338;39.544;2.596;2023-02-28T03:50:45;5.38;;;2.15;;
74808;SDS011;63338;39.544;2.596;2023-02-28T03:53:19;3.88;;;2.17;;
74808;SDS011;63338;39.544;2.596;2023-02-28T03:56:19;3.08;;;1.50;;
74808;SDS011;63338;39.544;2.596;2023-02-28T03:58:57;2.65;;;1.42;;
74808;SDS011;63338;39.544;2.596;2023-02-28T04:04:03;4.68;;;2.00;;
74808;SDS011;63338;39.544;2.596;2023-02-28T04:06:30;5.00;;;1.20;;
74808;SDS011;63338;39.544;2.596;2023-02-28T04:08:57;4.50;;;1.40;;
74808;SDS011;63338;39.544;2.596;2023-02-28T04:11:27;2.40;;;0.73;;
74808;SDS011;63338;39.544;2.596;2023-02-28T04:14:01;1.40;;;0.70;;
74808;SDS011;63338;39.544;2.596;2023-02-28T04:16:28;2.30;;;1.17;;
74808;SDS011;63338;39.544;2.596;2023-02-28T04:18:54;2.30;;;1.20;;
74808;SDS011;63338;39.544;2.596;2023-02-28T04:21:29;1.88;;;1.10;;
74808;SDS011;63338;39.544;2.596;2023-02-28T04:23:56;3.08;;;0.88;;
74808;SDS011;63338;39.544;2.596;2023-02-28T04:26:35;3.80;;;1.05;;
74808;SDS011;63338;39.544;2.596;2023-02-28T04:29:03;1.23;;;0.77;;
74808;SDS011;63338;39.544;2.596;2023-02-28T04:31:30;1.23;;;0.70;;
74808;SDS011;63338;39.544;2.596;2023-02-28T04:33:56;2.78;;;1.08;;
74808;SDS011;63338;39.544;2.596;2023-02-28T04:36:23;3.35;;;1.40;;
74808;SDS011;63338;39.544;2.596;2023-02-28T04:38:49;1.38;;;0.70;;
74808;SDS011;63338;39.544;2.596;2023-02-28T04:41:15;1.10;;;0.70;;
74808;SDS011;63338;39.544;2.596;2023-02-28T04:43:42;1.02;;;0.75;;
74808;SDS011;63338;39.544;2.596;2023-02-28T04:46:08;1.80;;;0.82;;
74808;SDS011;63338;39.544;2.596;2023-02-28T04:48:36;1.02;;;0.60;;
74808;SDS011;63338;39.544;2.596;2023-02-28T04:51:03;1.30;;;0.73;;
74808;SDS011;63338;39.544;2.596;2023-02-28T04:53:35;0.57;;;0.47;;
74808;SDS011;63338;39.544;2.596;2023-02-28T04:56:02;1.70;;;0.93;;
74808;SDS011;63338;39.544;2.596;2023-02-28T04:58:31;3.45;;;0.70;;
74808;SDS011;63338;39.544;2.596;2023-02-28T05:01:01;1.35;;;0.57;;
74808;SDS011;63338;39.544;2.596;2023-02-28T05:03:38;2.65;;;0.80;;
74808;SDS011;63338;39.544;2.596;2023-02-28T05:06:10;1.08;;;0.70;;
74808;SDS011;63338;39.544;2.596;2023-02-28T05:08:37;3.78;;;0.85;;
74808;SDS011;63338;39.544;2.596;2023-02-28T05:11:05;0.90;;;0.50;;
74808;SDS011;63338;39.544;2.596;2023-02-28T05:13:33;0.52;;;0.43;;
74808;SDS011;63338;39.544;2.596;2023-02-28T05:16:01;0.70;;;0.60;;
74808;SDS011;63338;39.544;2.596;2023-02-28T05:18:27;2.97;;;0.50;;
74808;SDS011;63338;39.544;2.596;2023-02-28T05:20:53;1.05;;;0.65;;
74808;SDS011;63338;39.544;2.596;2023-02-28T05:23:19;2.70;;;0.50;;
74808;SDS011;63338;39.544;2.596;2023-02-28T05:25:47;0.68;;;0.43;;
74808;SDS011;63338;39.544;2.596;2023-02-28T05:28:13;0.50;;;0.40;;
74808;SDS011;63338;39.544;2.596;2023-02-28T05:30:39;0.95;;;0.50;;
74808;SDS011;63338;39.544;2.596;2023-02-28T05:33:05;2.28;;;0.60;;
74808;SDS011;63338;39.544;2.596;2023-02-28T05:35:31;2.38;;;0.55;;
74808;SDS011;63338;39.544;2.596;2023-02-28T05:37:58;0.68;;;0.57;;
74808;SDS011;63338;39.544;2.596;2023-02-28T05:40:24;0.80;;;0.60;;
74808;SDS011;63338;39.544;2.596;2023-02-28T05:42:50;0.80;;;0.75;;
74808;SDS011;63338;39.544;2.596;2023-02-28T05:45:17;3.65;;;0.80;;
74808;SDS011;63338;39.544;2.596;2023-02-28T05:47:43;4.10;;;0.50;;
74808;SDS011;63338;39.544;2.596;2023-02-28T05:50:09;0.60;;;0.60;;
74808;SDS011;63338;39.544;2.596;2023-02-28T05:52:36;3.15;;;0.70;;
74808;SDS011;63338;39.544;2.596;2023-02-28T05:55:05;2.40;;;0.22;;
74808;SDS011;63338;39.544;2.596;2023-02-28T05:57:32;1.05;;;0.60;;
74808;SDS011;63338;39.544;2.596;2023-02-28T05:59:58;2.85;;;0.80;;
74808;SDS011;63338;39.544;2.596;2023-02-28T06:02:23;0.98;;;0.60;;
74808;SDS011;63338;39.544;2.596;2023-02-28T06:04:49;0.95;;;0.60;;
74808;SDS011;63338;39.544;2.596;2023-02-28T06:07:15;1.45;;;0.73;;
74808;SDS011;63338;39.544;2.596;2023-02-28T06:09:42;4.32;;;1.10;;
74808;SDS011;63338;39.544;2.596;2023-02-28T06:12:09;1.20;;;0.60;;
74808;SDS011;63338;39.544;2.596;2023-02-28T06:14:35;3.75;;;0.57;;
74808;SDS011;63338;39.544;2.596;2023-02-28T06:17:02;3.28;;;0.52;;
74808;SDS011;63338;39.544;2.596;2023-02-28T06:19:29;1.65;;;0.73;;
74808;SDS011;63338;39.544;2.596;2023-02-28T06:21:55;1.85;;;1.15;;
74808;SDS011;63338;39.544;2.596;2023-02-28T06:24:23;4.75;;;0.82;;
74808;SDS011;63338;39.544;2.596;2023-02-28T06:26:54;1.23;;;0.70;;
74808;SDS011;63338;39.544;2.596;2023-02-28T06:29:33;2.78;;;1.00;;
74808;SDS011;63338;39.544;2.596;2023-02-28T06:31:59;1.88;;;0.70;;
74808;SDS011;63338;39.544;2.596;2023-02-28T06:34:25;3.72;;;0.45;;
74808;SDS011;63338;39.544;2.596;2023-02-28T06:36:52;1.95;;;0.60;;
74808;SDS011;63338;39.544;2.596;2023-02-28T06:39:18;1.75;;;0.70;;
74808;SDS011;63338;39.544;2.596;2023-02-28T06:41:45;3.33;;;1.15;;
74808;SDS011;63338;39.544;2.596;2023-02-28T06:44:20;3.15;;;1.58;;
74808;SDS011;63338;39.544;2.596;2023-02-28T06:46:47;7.13;;;1.50;;
74808;SDS011;63338;39.544;2.596;2023-02-28T06:49:13;1.33;;;0.70;;
74808;SDS011;63338;39.544;2.596;2023-02-28T06:51:40;3.13;;;1.00;;
74808;SDS011;63338;39.544;2.596;2023-02-28T06:54:10;3.10;;;1.00;;
74808;SDS011;63338;39.544;2.596;2023-02-28T06:56:38;5.97;;;1.20;;
74808;SDS011;63338;39.544;2.596;2023-02-28T06:59:04;2.78;;;1.15;;
74808;SDS011;63338;39.544;2.596;2023-02-28T07:01:30;1.98;;;0.65;;
74808;SDS011;63338;39.544;2.596;2023-02-28T07:03:58;0.60;;;0.32;;
74808;SDS011;63338;39.544;2.596;2023-02-28T07:06:25;0.90;;;0.70;;
74808;SDS011;63338;39.544;2.596;2023-02-28T07:08:52;2.38;;;0.68;;
74808;SDS011;63338;39.544;2.596;2023-02-28T07:11:19;1.27;;;0.52;;
74808;SDS011;63338;39.544;2.596;2023-02-28T07:13:51;2.58;;;1.77;;
74808;SDS011;63338;39.544;2.596;2023-02-28T07:16:21;1.65;;;0.77;;
74808;SDS011;63338;39.544;2.596;2023-02-28T07:18:48;1.63;;;0.73;;
74808;SDS011;63338;39.544;2.596;2023-02-28T07:21:14;1.13;;;0.75;;
74808;SDS011;63338;39.544;2.596;2023-02-28T07:23:41;2.90;;;1.02;;
74808;SDS011;63338;39.544;2.596;2023-02-28T07:26:16;1.83;;;0.77;;
74808;SDS011;63338;39.544;2.596;2023-02-28T07:28:44;1.50;;;0.98;;
74808;SDS011;63338;39.544;2.596;2023-02-28T07:31:14;1.65;;;0.90;;
74808;SDS011;63338;39.544;2.596;2023-02-28T07:33:49;5.45;;;0.98;;
74808;SDS011;63338;39.544;2.596;2023-02-28T07:36:16;3.40;;;1.38;;
74808;SDS011;63338;39.544;2.596;2023-02-28T07:38:44;1.45;;;0.50;;
74808;SDS011;63338;39.544;2.596;2023-02-28T07:41:16;3.30;;;1.08;;
74808;SDS011;63338;39.544;2.596;2023-02-28T07:43:43;2.30;;;1.20;;
74808;SDS011;63338;39.544;2.596;2023-02-28T07:46:11;4.75;;;1.85;;
74808;SDS011;63338;39.544;2.596;2023-02-28T07:48:40;4.95;;;1.30;;
74808;SDS011;63338;39.544;2.596;2023-02-28T07:51:09;5.05;;;1.55;;
74808;SDS011;63338;39.544;2.596;2023-02-28T07:53:35;6.57;;;1.83;;
74808;SDS011;63338;39.544;2.596;2023-02-28T07:56:02;4.28;;;1.58;;
74808;SDS011;63338;39.544;2.596;2023-02-28T07:58:29;5.10;;;1.60;;
74808;SDS011;63338;39.544;2.596;2023-02-28T08:00:55;5.55;;;1.50;;
74808;SDS011;63338;39.544;2.596;2023-02-28T08:03:22;3.83;;;1.50;;
74808;SDS011;63338;39.544;2.596;2023-02-28T08:05:49;8.70;;;2.90;;
74808;SDS011;63338;39.544;2.596;2023-02-28T08:08:15;5.28;;;1.75;;
74808;SDS011;63338;39.544;2.596;2023-02-28T08:10:42;3.97;;;1.67;;
74808;SDS011;63338;39.544;2.596;2023-02-28T08:13:09;5.22;;;1.50;;
74808;SDS011;63338;39.544;2.596;2023-02-28T08:15:35;6.68;;;1.58;;
74808;SDS011;63338;39.544;2.596;2023-02-28T08:18:01;8.73;;;2.08;;
74808;SDS011;63338;39.544;2.596;2023-02-28T08:20:27;17.55;;;2.58;;
74808;SDS011;63338;39.544;2.596;2023-02-28T08:22:56;10.68;;;2.22;;
74808;SDS011;63338;39.544;2.596;2023-02-28T08:25:22;11.25;;;2.75;;
74808;SDS011;63338;39.544;2.596;2023-02-28T08:27:50;12.15;;;2.30;;
74808;SDS011;63338;39.544;2.596;2023-02-28T08:30:17;12.07;;;2.33;;
74808;SDS011;63338;39.544;2.596;2023-02-28T08:32:44;12.88;;;2.78;;
74808;SDS011;63338;39.544;2.596;2023-02-28T08:35:09;9.18;;;2.10;;
74808;SDS011;63338;39.544;2.596;2023-02-28T08:37:36;11.73;;;2.17;;
74808;SDS011;63338;39.544;2.596;2023-02-28T08:40:02;16.38;;;2.53;;
74808;SDS011;63338;39.544;2.596;2023-02-28T08:42:29;14.18;;;2.70;;
74808;SDS011;63338;39.544;2.596;2023-02-28T08:44:55;17.15;;;3.22;;
74808;SDS011;63338;39.544;2.596;2023-02-28T08:47:21;12.63;;;2.58;;
74808;SDS011;63338;39.544;2.596;2023-02-28T08:49:47;17.15;;;2.58;;
74808;SDS011;63338;39.544;2.596;2023-02-28T08:52:13;13.32;;;2.63;;
74808;SDS011;63338;39.544;2.596;2023-02-28T08:54:39;11.75;;;2.63;;
74808;SDS011;63338;39.544;2.596;2023-02-28T08:57:05;11.85;;;2.35;;
74808;SDS011;63338;39.544;2.596;2023-02-28T08:59:32;18.63;;;3.20;;
74808;SDS011;63338;39.544;2.596;2023-02-28T09:02:08;22.60;;;3.40;;
74808;SDS011;63338;39.544;2.596;2023-02-28T09:04:37;14.18;;;2.22;;
74808;SDS011;63338;39.544;2.596;2023-02-28T09:07:03;16.50;;;2.47;;
74808;SDS011;63338;39.544;2.596;2023-02-28T09:09:29;17.08;;;3.20;;
74808;SDS011;63338;39.544;2.596;2023-02-28T09:11:58;21.02;;;3.30;;
74808;SDS011;63338;39.544;2.596;2023-02-28T09:14:24;16.48;;;2.75;;
74808;SDS011;63338;39.544;2.596;2023-02-28T09:16:51;19.25;;;3.40;;
74808;SDS011;63338;39.544;2.596;2023-02-28T09:19:18;14.48;;;2.33;;
74808;SDS011;63338;39.544;2.596;2023-02-28T09:21:47;18.67;;;2.88;;
74808;SDS011;63338;39.544;2.596;2023-02-28T09:24:13;12.30;;;3.25;;
74808;SDS011;63338;39.544;2.596;2023-02-28T09:26:40;19.52;;;3.72;;
74808;SDS011;63338;39.544;2.596;2023-02-28T09:29:07;20.33;;;5.05;;
74808;SDS011;63338;39.544;2.596;2023-02-28T09:31:34;21.23;;;3.63;;
74808;SDS011;63338;39.544;2.596;2023-02-28T09:34:03;12.07;;;4.10;;
74808;SDS011;63338;39.544;2.596;2023-02-28T09:36:32;24.85;;;10.50;;
74808;SDS011;63338;39.544;2.596;2023-02-28T09:39:00;16.02;;;6.03;;
74808;SDS011;63338;39.544;2.596;2023-02-28T09:41:26;15.10;;;4.25;;
74808;SDS011;63338;39.544;2.596;2023-02-28T09:44:05;26.92;;;8.13;;
74808;SDS011;63338;39.544;2.596;2023-02-28T09:46:39;17.50;;;4.45;;
74808;SDS011;63338;39.544;2.596;2023-02-28T09:49:12;15.52;;;4.40;;
74808;SDS011;63338;39.544;2.596;2023-02-28T09:51:52;22.98;;;4.47;;
74808;SDS011;63338;39.544;2.596;2023-02-28T09:54:34;21.42;;;4.43;;
74808;SDS011;63338;39.544;2.596;2023-02-28T10:01:03;28.88;;;7.68;;
74808;SDS011;63338;39.544;2.596;2023-02-28T10:06:28;30.58;;;8.23;;
74808;SDS011;63338;39.544;2.596;2023-02-28T10:11:26;30.90;;;8.07;;
74808;SDS011;63338;39.544;2.596;2023-02-28T10:19:05;45.15;;;10.45;;
74808;SDS011;63338;39.544;2.596;2023-02-28T10:21:46;60.40;;;23.80;;
74808;SDS011;63338;39.544;2.596;2023-02-28T10:24:26;49.75;;;12.50;;
74808;SDS011;63338;39.544;2.596;2023-02-28T10:27:15;62.95;;;16.92;;
74808;SDS011;63338;39.544;2.596;2023-02-28T10:30:04;58.35;;;17.10;;
74808;SDS011;63338;39.544;2.596;2023-02-28T10:32:32;85.70;;;23.92;;
74808;SDS011;63338;39.544;2.596;2023-02-28T10:37:41;101.70;;;33.97;;
74808;SDS011;63338;39.544;2.596;2023-02-28T10:40:27;40.55;;;16.48;;
74808;SDS011;63338;39.544;2.596;2023-02-28T10:48:34;29.67;;;10.32;;
74808;SDS011;63338;39.544;2.596;2023-02-28T10:51:07;31.58;;;11.80;;
74808;SDS011;63338;39.544;2.596;2023-02-28T10:53:54;25.33;;;10.30;;
74808;SDS011;63338;39.544;2.596;2023-02-28T10:56:23;34.05;;;12.48;;
74808;SDS011;63338;39.544;2.596;2023-02-28T11:01:23;30.42;;;8.93;;
74808;SDS011;63338;39.544;2.596;2023-02-28T11:03:58;19.25;;;4.93;;
74808;SDS011;63338;39.544;2.596;2023-02-28T11:06:29;41.70;;;13.40;;
74808;SDS011;63338;39.544;2.596;2023-02-28T11:08:58;39.40;;;9.35;;
74808;SDS011;63338;39.544;2.596;2023-02-28T11:11:30;32.25;;;10.60;;
74808;SDS011;63338;39.544;2.596;2023-02-28T11:17:24;27.20;;;8.32;;
74808;SDS011;63338;39.544;2.596;2023-02-28T11:19:54;25.58;;;8.23;;
74808;SDS011;63338;39.544;2.596;2023-02-28T11:22:24;24.63;;;6.35;;
74808;SDS011;63338;39.544;2.596;2023-02-28T11:24:57;23.95;;;7.57;;
74808;SDS011;63338;39.544;2.596;2023-02-28T11:29:59;18.50;;;6.78;;
74808;SDS011;63338;39.544;2.596;2023-02-28T11:32:26;23.48;;;7.65;;
74808;SDS011;63338;39.544;2.596;2023-02-28T11:37:45;21.80;;;7.45;;
74808;SDS011;63338;39.544;2.596;2023-02-28T11:40:14;13.27;;;5.70;;
74808;SDS011;63338;39.544;2.596;2023-02-28T11:43:01;13.02;;;4.75;;
74808;SDS011;63338;39.544;2.596;2023-02-28T11:45:38;16.02;;;5.70;;
74808;SDS011;63338;39.544;2.596;2023-02-28T11:48:22;9.52;;;4.75;;
74808;SDS011;63338;39.544;2.596;2023-02-28T11:51:12;11.45;;;3.72;;
74808;SDS011;63338;39.544;2.596;2023-02-28T11:56:49;16.13;;;4.90;;
74808;SDS011;63338;39.544;2.596;2023-02-28T11:59:45;15.50;;;6.18;;
74808;SDS011;63338;39.544;2.596;2023-02-28T12:05:35;12.57;;;5.82;;
74808;SDS011;63338;39.544;2.596;2023-02-28T12:13:58;13.10;;;5.13;;
74808;SDS011;63338;39.544;2.596;2023-02-28T12:19:26;14.48;;;4.28;;
74808;SDS011;63338;39.544;2.596;2023-02-28T12:27:30;13.18;;;3.92;;
74808;SDS011;63338;39.544;2.596;2023-02-28T12:30:04;17.05;;;3.50;;
74808;SDS011;63338;39.544;2.596;2023-02-28T12:32:44;10.82;;;4.30;;
74808;SDS011;63338;39.544;2.596;2023-02-28T12:40:56;17.95;;;4.38;;
74808;SDS011;63338;39.544;2.596;2023-02-28T12:43:32;9.95;;;2.97;;
74808;SDS011;63338;39.544;2.596;2023-02-28T12:46:07;13.55;;;3.17;;
74808;SDS011;63338;39.544;2.596;2023-02-28T12:48:43;13.10;;;3.60;;
74808;SDS011;63338;39.544;2.596;2023-02-28T12:51:12;10.77;;;2.67;;
74808;SDS011;63338;39.544;2.596;2023-02-28T12:57:04;11.57;;;3.50;;
74808;SDS011;63338;39.544;2.596;2023-02-28T13:10:40;11.43;;;2.72;;
74808;SDS011;63338;39.544;2.596;2023-02-28T13:13:15;15.95;;;4.93;;
74808;SDS011;63338;39.544;2.596;2023-02-28T13:21:55;15.90;;;4.22;;
74808;SDS011;63338;39.544;2.596;2023-02-28T13:24:42;14.02;;;4.70;;
74808;SDS011;63338;39.544;2.596;2023-02-28T13:27:12;14.02;;;4.28;;
74808;SDS011;63338;39.544;2.596;2023-02-28T13:29:49;19.52;;;4.57;;
74808;SDS011;63338;39.544;2.596;2023-02-28T13:39:55;17.30;;;4.18;;
74808;SDS011;63338;39.544;2.596;2023-02-28T13:47:29;15.45;;;3.95;;
74808;SDS011;63338;39.544;2.596;2023-02-28T14:01:31;13.35;;;3.13;;
74808;SDS011;63338;39.544;2.596;2023-02-28T14:07:46;12.48;;;3.05;;
74808;SDS011;63338;39.544;2.596;2023-02-28T14:10:35;11.85;;;2.60;;
74808;SDS011;63338;39.544;2.596;2023-02-28T14:15:57;11.45;;;2.85;;
74808;SDS011;63338;39.544;2.596;2023-02-28T14:18:33;16.75;;;2.90;;
74808;SDS011;63338;39.544;2.596;2023-02-28T14:38:38;9.35;;;2.45;;
74808;SDS011;63338;39.544;2.596;2023-02-28T14:41:20;7.78;;;1.42;;
74808;SDS011;63338;39.544;2.596;2023-02-28T14:43:50;9.85;;;2.50;;
74808;SDS011;63338;39.544;2.596;2023-02-28T14:46:19;10.80;;;2.35;;
74808;SDS011;63338;39.544;2.596;2023-02-28T14:48:47;13.38;;;2.50;;
74808;SDS011;63338;39.544;2.596;2023-02-28T14:51:18;9.75;;;2.33;;
74808;SDS011;63338;39.544;2.596;2023-02-28T14:54:00;13.32;;;3.70;;
74808;SDS011;63338;39.544;2.596;2023-02-28T14:56:35;12.68;;;2.65;;
74808;SDS011;63338;39.544;2.596;2023-02-28T14:59:05;11.88;;;2.45;;
74808;SDS011;63338;39.544;2.596;2023-02-28T15:01:51;8.88;;;2.20;;
74808;SDS011;63338;39.544;2.596;2023-02-28T15:04:21;10.07;;;2.33;;
74808;SDS011;63338;39.544;2.596;2023-02-28T15:07:10;11.40;;;3.08;;
74808;SDS011;63338;39.544;2.596;2023-02-28T15:09:39;12.68;;;2.60;;
74808;SDS011;63338;39.544;2.596;2023-02-28T15:12:05;11.48;;;2.15;;
74808;SDS011;63338;39.544;2.596;2023-02-28T15:14:32;10.07;;;2.25;;
74808;SDS011;63338;39.544;2.596;2023-02-28T15:17:11;19.13;;;3.25;;
74808;SDS011;63338;39.544;2.596;2023-02-28T15:19:44;12.73;;;2.92;;
74808;SDS011;63338;39.544;2.596;2023-02-28T15:22:17;10.75;;;2.20;;
74808;SDS011;63338;39.544;2.596;2023-02-28T15:24:47;8.45;;;2.10;;
74808;SDS011;63338;39.544;2.596;2023-02-28T15:27:37;10.18;;;2.33;;
74808;SDS011;63338;39.544;2.596;2023-02-28T15:30:26;12.80;;;2.67;;
74808;SDS011;63338;39.544;2.596;2023-02-28T15:33:05;10.55;;;2.40;;
74808;SDS011;63338;39.544;2.596;2023-02-28T15:35:46;7.45;;;1.83;;
74808;SDS011;63338;39.544;2.596;2023-02-28T15:38:15;6.90;;;2.20;;
74808;SDS011;63338;39.544;2.596;2023-02-28T15:40:44;7.75;;;2.03;;
74808;SDS011;63338;39.544;2.596;2023-02-28T15:45:59;12.00;;;2.78;;
74808;SDS011;63338;39.544;2.596;2023-02-28T15:48:30;11.55;;;2.85;;
74808;SDS011;63338;39.544;2.596;2023-02-28T15:53:59;7.35;;;2.17;;
74808;SDS011;63338;39.544;2.596;2023-02-28T15:56:31;8.30;;;1.85;;
74808;SDS011;63338;39.544;2.596;2023-02-28T15:59:02;7.80;;;1.70;;
74808;SDS011;63338;39.544;2.596;2023-02-28T16:02:02;8.75;;;3.15;;
74808;SDS011;63338;39.544;2.596;2023-02-28T16:04:35;5.97;;;2.40;;
74808;SDS011;63338;39.544;2.596;2023-02-28T16:07:03;9.75;;;4.53;;
74808;SDS011;63338;39.544;2.596;2023-02-28T16:09:31;8.50;;;2.78;;
74808;SDS011;63338;39.544;2.596;2023-02-28T16:12:01;5.70;;;1.65;;
74808;SDS011;63338;39.544;2.596;2023-02-28T16:14:28;9.43;;;1.85;;
74808;SDS011;63338;39.544;2.596;2023-02-28T16:16:57;9.15;;;2.05;;
74808;SDS011;63338;39.544;2.596;2023-02-28T16:19:31;7.55;;;2.05;;
74808;SDS011;63338;39.544;2.596;2023-02-28T16:21:57;8.18;;;1.85;;
74808;SDS011;63338;39.544;2.596;2023-02-28T16:24:23;7.20;;;1.90;;
74808;SDS011;63338;39.544;2.596;2023-02-28T16:26:50;9.50;;;2.15;;
74808;SDS011;63338;39.544;2.596;2023-02-28T16:29:27;8.98;;;2.55;;
74808;SDS011;63338;39.544;2.596;2023-02-28T16:31:56;7.25;;;2.10;;
74808;SDS011;63338;39.544;2.596;2023-02-28T16:34:26;7.07;;;2.20;;
74808;SDS011;63338;39.544;2.596;2023-02-28T16:36:52;8.52;;;2.08;;
74808;SDS011;63338;39.544;2.596;2023-02-28T16:39:19;8.57;;;2.55;;
74808;SDS011;63338;39.544;2.596;2023-02-28T16:41:48;9.90;;;2.40;;
74808;SDS011;63338;39.544;2.596;2023-02-28T16:44:28;11.95;;;2.97;;
74808;SDS011;63338;39.544;2.596;2023-02-28T16:46:57;10.38;;;2.65;;
74808;SDS011;63338;39.544;2.596;2023-02-28T16:49:25;7.95;;;2.50;;
74808;SDS011;63338;39.544;2.596;2023-02-28T16:51:52;9.45;;;3.65;;
74808;SDS011;63338;39.544;2.596;2023-02-28T16:54:18;9.93;;;2.95;;
74808;SDS011;63338;39.544;2.596;2023-02-28T16:56:45;13.93;;;2.45;;
74808;SDS011;63338;39.544;2.596;2023-02-28T16:59:21;7.45;;;2.20;;
74808;SDS011;63338;39.544;2.596;2023-02-28T17:01:49;5.15;;;2.08;;
74808;SDS011;63338;39.544;2.596;2023-02-28T17:04:16;7.85;;;2.55;;
74808;SDS011;63338;39.544;2.596;2023-02-28T17:06:42;5.32;;;1.88;;
74808;SDS011;63338;39.544;2.596;2023-02-28T17:09:27;7.30;;;2.60;;
74808;SDS011;63338;39.544;2.596;2023-02-28T17:11:55;7.63;;;1.58;;
74808;SDS011;63338;39.544;2.596;2023-02-28T17:14:22;7.15;;;2.78;;
74808;SDS011;63338;39.544;2.596;2023-02-28T17:16:50;8.57;;;2.28;;
74808;SDS011;63338;39.544;2.596;2023-02-28T17:19:19;9.98;;;3.35;;
74808;SDS011;63338;39.544;2.596;2023-02-28T17:21:50;10.20;;;2.60;;
74808;SDS011;63338;39.544;2.596;2023-02-28T17:24:16;12.95;;;3.13;;
74808;SDS011;63338;39.544;2.596;2023-02-28T17:26:42;9.52;;;2.70;;
74808;SDS011;63338;39.544;2.596;2023-02-28T17:29:11;12.25;;;3.80;;
74808;SDS011;63338;39.544;2.596;2023-02-28T17:31:49;9.07;;;2.80;;
74808;SDS011;63338;39.544;2.596;2023-02-28T17:34:15;12.25;;;2.85;;
74808;SDS011;63338;39.544;2.596;2023-02-28T17:36:44;10.13;;;2.25;;
74808;SDS011;63338;39.544;2.596;2023-02-28T17:39:11;11.52;;;3.22;;
74808;SDS011;63338;39.544;2.596;2023-02-28T17:41:47;14.32;;;2.72;;
74808;SDS011;63338;39.544;2.596;2023-02-28T17:44:13;12.57;;;2.50;;
74808;SDS011;63338;39.544;2.596;2023-02-28T17:46:41;16.98;;;3.90;;
74808;SDS011;63338;39.544;2.596;2023-02-28T17:49:08;9.65;;;2.70;;
74808;SDS011;63338;39.544;2.596;2023-02-28T17:51:35;14.40;;;2.95;;
74808;SDS011;63338;39.544;2.596;2023-02-28T17:54:01;13.48;;;3.20;;
74808;SDS011;63338;39.544;2.596;2023-02-28T17:56:27;10.75;;;2.78;;
74808;SDS011;63338;39.544;2.596;2023-02-28T17:58:54;13.10;;;2.88;;
74808;SDS011;63338;39.544;2.596;2023-02-28T18:01:21;15.70;;;3.20;;